createdAt,value
2023-05-10T00:00:19.126Z,96659.06
2023-05-10T00:02:27.763Z,96667.66
2023-05-10T00:04:36.127Z,96666.50
2023-05-10T00:06:44.101Z,96680.75
2023-05-10T00:08:54.740Z,96671.16
2023-05-10T00:11:02.665Z,96683.00
2023-05-10T00:13:10.739Z,96687.50
2023-05-10T00:15:18.670Z,96683.94
2023-05-10T00:17:26.636Z,96681.00
2023-05-10T00:19:34.609Z,96673.84
2023-05-10T00:21:42.515Z,96676.25
2023-05-10T00:23:50.421Z,96681.44
2023-05-10T00:26:01.028Z,96684.38
2023-05-10T00:28:08.949Z,96686.19
2023-05-10T00:30:20.163Z,96679.03
2023-05-10T00:32:28.573Z,96692.09
2023-05-10T00:34:37.733Z,96701.81
2023-05-10T00:36:45.593Z,96703.50
2023-05-10T00:38:53.677Z,96708.41
2023-05-10T00:41:04.239Z,96701.22
2023-05-10T00:43:15.275Z,96703.22
2023-05-10T00:45:23.200Z,96700.81
2023-05-10T00:47:32.728Z,96709.13
2023-05-10T00:49:40.876Z,96709.97
2023-05-10T00:51:49.122Z,96716.56
2023-05-10T00:53:57.235Z,96715.19
2023-05-10T00:56:08.164Z,96714.03
2023-05-10T00:58:16.429Z,96717.69
2023-05-10T01:00:24.594Z,96727.09
2023-05-10T01:02:32.971Z,96731.75
2023-05-10T01:04:41.879Z,96729.34
2023-05-10T01:06:49.924Z,96733.25
2023-05-10T01:12:54.303Z,96737.06
2023-05-10T01:15:05.611Z,96741.16
2023-05-10T01:17:15.027Z,96746.03
2023-05-10T01:19:26.087Z,96751.38
2023-05-10T01:21:42.909Z,96756.97
2023-05-10T01:24:38.514Z,96764.53
2023-05-10T01:27:16.455Z,96767.22
2023-05-10T01:30:05.929Z,96771.28
2023-05-10T01:32:33.166Z,96767.91
2023-05-10T01:34:49.034Z,96773.75
2023-05-10T01:37:06.901Z,96778.41
2023-05-10T01:39:22.904Z,96787.63
2023-05-10T01:41:47.741Z,96789.84
2023-05-10T01:44:01.574Z,96789.59
2023-05-10T01:46:13.825Z,96789.75
2023-05-10T01:48:26.286Z,96791.88
2023-05-10T01:50:35.905Z,96797.34
2023-05-10T01:52:47.552Z,96801.38
2023-05-10T01:55:00.897Z,96794.78
2023-05-10T01:57:11.228Z,96801.69
2023-05-10T01:59:22.424Z,96797.19
2023-05-10T02:01:31.653Z,96799.28
2023-05-10T02:03:44.014Z,96801.81
2023-05-10T02:05:53.463Z,96807.28
2023-05-10T02:08:05.546Z,96812.34
2023-05-10T02:10:15.651Z,96811.78
2023-05-10T02:12:24.952Z,96816.53
2023-05-10T02:14:34.594Z,96817.66
2023-05-10T02:16:43.827Z,96821.41
2023-05-10T02:18:56.815Z,96823.59
2023-05-10T02:21:07.012Z,96823.59
2023-05-10T02:23:15.726Z,96825.56
2023-05-10T02:25:27.430Z,96829.31
2023-05-10T02:27:36.350Z,96830.31
2023-05-10T02:29:45.372Z,96835.56
2023-05-10T02:31:55.432Z,96836.31
2023-05-10T02:34:07.906Z,96840.16
2023-05-10T02:36:17.762Z,96836.38
2023-05-10T02:38:28.067Z,96836.38
2023-05-10T02:40:37.756Z,96837.03
2023-05-10T02:42:47.940Z,96833.53
2023-05-10T02:45:00.736Z,96817.22
2023-05-10T02:47:08.772Z,96825.28
2023-05-10T02:49:19.594Z,96823.59
2023-05-10T02:51:32.746Z,96826.81
2023-05-10T02:53:45.485Z,96821.78
2023-05-10T02:55:56.937Z,96816.44
2023-05-10T02:58:06.485Z,96817.16
2023-05-10T03:00:15.917Z,96806.41
2023-05-10T03:02:24.984Z,96809.06
2023-05-10T03:04:35.732Z,96806.41
2023-05-10T03:06:43.931Z,96814.84
2023-05-10T03:08:51.947Z,96813.88
2023-05-10T03:11:13.262Z,96819.09
2023-05-10T03:13:32.776Z,96809.66
2023-05-10T03:15:51.976Z,96814.19
2023-05-10T03:18:06.000Z,96813.16
2023-05-10T03:20:22.496Z,96817.50
2023-05-10T03:22:37.713Z,96823.28
2023-05-10T03:24:47.276Z,96825.13
2023-05-10T03:26:59.930Z,96832.41
2023-05-10T03:29:09.734Z,96838.06
2023-05-10T03:31:18.757Z,96848.25
2023-05-10T03:33:27.212Z,96841.34
2023-05-10T03:35:40.035Z,96852.31
2023-05-10T03:37:48.709Z,96854.97
2023-05-10T03:39:58.201Z,96854.22
2023-05-10T03:42:08.776Z,96854.50
2023-05-10T03:44:16.774Z,96858.63
2023-05-10T03:46:25.701Z,96854.13
2023-05-10T03:48:34.131Z,96857.31
2023-05-10T03:50:44.734Z,96849.31
2023-05-10T03:52:54.766Z,96857.81
2023-05-10T03:55:04.112Z,96859.53
2023-05-10T03:57:15.153Z,96853.91
2023-05-10T03:59:23.194Z,96856.31
2023-05-10T04:01:33.279Z,96864.91
2023-05-10T04:03:41.487Z,96872.06
2023-05-10T04:05:52.211Z,96868.69
2023-05-10T04:08:00.460Z,96874.97
2023-05-10T04:10:09.405Z,96871.13
2023-05-10T04:12:17.532Z,96866.63
2023-05-10T04:14:25.442Z,96873.63
2023-05-10T04:16:33.344Z,96875.06
2023-05-10T04:18:41.404Z,96878.00
2023-05-10T04:20:52.290Z,96888.69
2023-05-10T04:23:00.146Z,96883.50
2023-05-10T04:25:09.401Z,96887.56
2023-05-10T04:27:17.323Z,96893.13
2023-05-10T04:29:25.331Z,96899.47
2023-05-10T04:31:33.657Z,96896.06
2023-05-10T04:33:42.029Z,96899.16
2023-05-10T04:35:53.364Z,96899.81
2023-05-10T04:38:04.420Z,96902.34
2023-05-10T04:40:14.025Z,96905.50
2023-05-10T04:42:22.115Z,96901.59
2023-05-10T04:44:30.146Z,96911.72
2023-05-10T04:46:38.283Z,96912.97
2023-05-10T04:48:46.184Z,96914.97
2023-05-10T04:50:56.731Z,96919.47
2023-05-10T04:53:04.522Z,96928.00
2023-05-10T04:55:12.845Z,96934.50
2023-05-10T04:57:20.803Z,96935.47
2023-05-10T04:59:29.145Z,96941.88
2023-05-10T05:01:37.079Z,96946.31
2023-05-10T05:03:45.234Z,96951.69
2023-05-10T05:05:53.198Z,96953.19
2023-05-10T05:08:03.676Z,96963.78
2023-05-10T05:10:12.865Z,96975.13
2023-05-10T05:12:20.888Z,96973.09
2023-05-10T05:14:28.970Z,96980.47
2023-05-10T05:16:37.149Z,96980.78
2023-05-10T05:18:45.279Z,97000.81
2023-05-10T05:20:53.088Z,97011.31
2023-05-10T05:23:03.734Z,97017.69
2023-05-10T05:25:12.968Z,97038.47
2023-05-10T05:27:22.132Z,97047.94
2023-05-10T05:29:30.097Z,97048.47
2023-05-10T05:31:38.082Z,97052.16
2023-05-10T05:33:46.166Z,97052.13
2023-05-10T05:35:54.161Z,97058.19
2023-05-10T05:38:04.969Z,97060.16
2023-05-10T05:40:16.672Z,97057.47
2023-05-10T05:42:25.775Z,97053.53
2023-05-10T05:44:33.724Z,97052.28
2023-05-10T05:46:42.036Z,97045.63
2023-05-10T05:48:49.889Z,97050.31
2023-05-10T05:50:59.568Z,97050.31
2023-05-10T05:53:10.055Z,97059.19
2023-05-10T05:55:18.234Z,97065.38
2023-05-10T05:57:27.778Z,97066.38
2023-05-10T05:59:35.781Z,97069.84
2023-05-10T06:01:43.698Z,97065.50
2023-05-10T06:03:53.377Z,97064.25
2023-05-10T06:06:01.778Z,97066.75
2023-05-10T06:08:12.625Z,97061.53
2023-05-10T06:10:20.749Z,97058.88
2023-05-10T06:12:28.565Z,97059.47
2023-05-10T06:14:36.449Z,97064.25
2023-05-10T06:16:44.561Z,97079.47
2023-05-10T06:18:55.086Z,97081.31
2023-05-10T06:21:02.934Z,97085.69
2023-05-10T06:23:13.548Z,97087.78
2023-05-10T06:25:21.853Z,97089.03
2023-05-10T06:27:29.879Z,97095.25
2023-05-10T06:29:37.849Z,97102.84
2023-05-10T06:31:46.153Z,97116.94
2023-05-10T06:33:56.086Z,97112.03
2023-05-10T06:36:05.119Z,97112.72
2023-05-10T06:38:16.355Z,97102.03
2023-05-10T06:40:24.682Z,97105.69
2023-05-10T06:42:32.678Z,97106.38
2023-05-10T06:44:40.641Z,97114.56
2023-05-10T06:46:48.706Z,97116.94
2023-05-10T06:48:56.916Z,97117.38
2023-05-10T06:51:05.228Z,97125.97
2023-05-10T06:53:15.736Z,97131.16
2023-05-10T06:55:23.890Z,97126.38
2023-05-10T06:57:34.399Z,97128.47
2023-05-10T06:59:42.342Z,97131.84
2023-05-10T07:01:50.321Z,97119.50
2023-05-10T07:03:58.246Z,97121.19
2023-05-10T07:06:13.357Z,97119.75
2023-05-10T07:08:29.246Z,97122.16
2023-05-10T07:10:37.256Z,97122.72
2023-05-10T07:12:45.474Z,97120.31
2023-05-10T07:14:53.836Z,97121.31
2023-05-10T07:17:01.810Z,97132.72
2023-05-10T07:19:10.276Z,97122.56
2023-05-10T07:21:18.217Z,97119.22
2023-05-10T07:23:30.743Z,97115.56
2023-05-10T07:25:39.150Z,97114.72
2023-05-10T07:27:47.283Z,97120.44
2023-05-10T07:29:55.859Z,97131.88
2023-05-10T07:32:03.828Z,97137.50
2023-05-10T07:34:12.202Z,97142.78
2023-05-10T07:36:20.115Z,97152.34
2023-05-10T07:38:30.970Z,97152.91
2023-05-10T07:40:39.262Z,97165.31
2023-05-10T07:42:47.272Z,97157.88
2023-05-10T07:44:55.182Z,97167.50
2023-05-10T07:47:03.188Z,97159.00
2023-05-10T07:49:11.126Z,97167.03
2023-05-10T07:51:19.156Z,97163.97
2023-05-10T07:53:27.228Z,97168.31
2023-05-10T07:55:37.830Z,97173.03
2023-05-10T07:57:46.295Z,97179.25
2023-05-10T07:59:54.479Z,97182.78
2023-05-10T08:02:02.436Z,97180.50
2023-05-10T08:04:10.479Z,97183.22
2023-05-10T08:06:18.411Z,97174.72
2023-05-10T08:08:26.391Z,97185.34
2023-05-10T08:10:34.272Z,97185.41
2023-05-10T08:12:44.818Z,97187.78
2023-05-10T08:14:52.668Z,97181.47
2023-05-10T08:17:00.617Z,97171.66
2023-05-10T08:19:08.811Z,97181.44
2023-05-10T08:21:17.096Z,97181.28
2023-05-10T08:23:25.129Z,97173.50
2023-05-10T08:25:33.066Z,97177.03
2023-05-10T08:27:40.969Z,97177.44
2023-05-10T08:29:51.442Z,97176.53
2023-05-10T08:31:59.483Z,97176.97
2023-05-10T08:34:07.553Z,97173.25
2023-05-10T08:36:20.821Z,97179.78
2023-05-10T08:38:28.916Z,97181.41
2023-05-10T08:40:37.881Z,97179.56
2023-05-10T08:42:52.909Z,97177.72
2023-05-10T08:45:03.637Z,97183.91
2023-05-10T08:47:14.250Z,97176.34
2023-05-10T08:49:23.927Z,97183.94
2023-05-10T08:51:37.566Z,97189.06
2023-05-10T08:53:45.625Z,97191.34
2023-05-10T08:55:54.412Z,97199.28
2023-05-10T08:58:02.982Z,97195.94
2023-05-10T09:00:16.121Z,97197.50
2023-05-10T09:02:25.060Z,97210.84
2023-05-10T09:04:33.831Z,97203.81
2023-05-10T09:06:42.293Z,97208.47
2023-05-10T09:08:50.575Z,97206.97
2023-05-10T09:10:59.262Z,97198.69
2023-05-10T09:13:08.923Z,97202.63
2023-05-10T09:15:20.470Z,97201.44
2023-05-10T09:17:29.779Z,97209.78
2023-05-10T09:19:37.878Z,97216.41
2023-05-10T09:21:46.014Z,97207.81
2023-05-10T09:23:55.428Z,97211.25
2023-05-10T09:26:07.229Z,97215.63
2023-05-10T09:28:15.751Z,97210.31
2023-05-10T09:30:33.638Z,97209.31
2023-05-10T09:32:43.677Z,97206.63
2023-05-10T09:34:54.284Z,97207.78
2023-05-10T09:37:05.603Z,97212.59
2023-05-10T09:39:13.852Z,97210.34
2023-05-10T09:41:22.908Z,97209.63
2023-05-10T09:43:33.248Z,97213.56
2023-05-10T09:45:45.652Z,97215.47
2023-05-10T09:47:54.339Z,97213.91
2023-05-10T09:50:04.859Z,97215.06
2023-05-10T09:52:13.172Z,97217.88
2023-05-10T09:54:21.390Z,97215.34
2023-05-10T09:56:41.009Z,97221.69
2023-05-10T09:58:49.544Z,97212.38
2023-05-10T10:01:00.260Z,97215.19
2023-05-10T10:03:09.279Z,97216.00
2023-05-10T10:05:18.108Z,97214.44
2023-05-10T10:07:28.605Z,97221.28
2023-05-10T10:09:38.982Z,97225.91
2023-05-10T10:11:47.272Z,97227.16
2023-05-10T10:13:55.710Z,97229.63
2023-05-10T10:16:06.641Z,97227.75
2023-05-10T10:18:18.996Z,97231.22
2023-05-10T10:20:28.532Z,97230.16
2023-05-10T10:22:37.922Z,97233.19
2023-05-10T10:24:46.042Z,97230.41
2023-05-10T10:26:59.494Z,97229.72
2023-05-10T10:29:17.319Z,97229.63
2023-05-10T10:31:36.436Z,97249.06
2023-05-10T10:33:59.881Z,97226.72
2023-05-10T10:36:08.776Z,97227.47
2023-05-10T10:38:18.516Z,97225.38
2023-05-10T10:40:33.645Z,97233.78
2023-05-10T10:42:51.076Z,97211.03
2023-05-10T10:45:16.483Z,97222.94
2023-05-10T10:47:34.491Z,97218.34
2023-05-10T10:49:48.088Z,97219.84
2023-05-10T10:52:34.890Z,97209.75
2023-05-10T10:54:43.103Z,97215.13
2023-05-10T10:57:22.811Z,97219.50
2023-05-10T10:59:31.900Z,97218.31
2023-05-10T11:01:39.941Z,97220.50
2023-05-10T11:04:24.232Z,97219.75
2023-05-10T11:06:36.772Z,97222.00
2023-05-10T11:08:48.953Z,97224.78
2023-05-10T11:11:08.315Z,97217.00
2023-05-10T11:13:16.503Z,97215.16
2023-05-10T11:15:32.360Z,97221.44
2023-05-10T11:17:40.627Z,97214.25
2023-05-10T11:20:10.615Z,97225.53
2023-05-10T11:22:19.541Z,97224.91
2023-05-10T11:24:31.360Z,97219.84
2023-05-10T11:26:40.041Z,97224.50
2023-05-10T11:28:49.349Z,97223.66
2023-05-10T11:30:58.366Z,97224.00
2023-05-10T11:33:06.771Z,97227.94
2023-05-10T11:35:17.737Z,97229.22
2023-05-10T11:37:25.775Z,97233.16
2023-05-10T11:39:35.332Z,97234.03
2023-05-10T11:41:43.915Z,97230.09
2023-05-10T11:43:54.017Z,97229.44
2023-05-10T11:46:01.882Z,97232.25
2023-05-10T11:48:09.963Z,97238.13
2023-05-10T11:50:21.899Z,97244.47
2023-05-10T11:52:30.080Z,97247.16
2023-05-10T11:54:38.936Z,97251.81
2023-05-10T11:56:46.988Z,97257.31
2023-05-10T11:58:57.930Z,97266.91
2023-05-10T12:01:06.895Z,97269.75
2023-05-10T12:03:15.175Z,97274.53
2023-05-10T12:05:26.057Z,97267.50
2023-05-10T12:07:34.137Z,97275.03
2023-05-10T12:09:47.088Z,97277.78
2023-05-10T12:12:00.020Z,97284.13
2023-05-10T12:14:09.288Z,97278.00
2023-05-10T12:16:18.448Z,97283.31
2023-05-10T12:18:28.303Z,97293.63
2023-05-10T12:20:39.179Z,97293.66
2023-05-10T12:22:51.401Z,97288.63
2023-05-10T12:24:59.370Z,97289.94
2023-05-10T12:27:09.446Z,97296.41
2023-05-10T12:29:19.577Z,97297.25
2023-05-10T12:31:27.876Z,97280.47
2023-05-10T12:33:43.871Z,97288.94
2023-05-10T12:35:57.528Z,97282.56
2023-05-10T12:38:26.268Z,97292.53
2023-05-10T12:40:34.162Z,97285.91
2023-05-10T12:42:43.222Z,97299.66
2023-05-10T12:44:51.111Z,97290.63
2023-05-10T12:46:59.087Z,97291.34
2023-05-10T12:49:09.412Z,97294.22
2023-05-10T12:51:23.280Z,97290.50
2023-05-10T12:53:31.301Z,97298.81
2023-05-10T12:55:39.195Z,97291.56
2023-05-10T12:57:47.168Z,97295.03
2023-05-10T12:59:55.152Z,97285.91
2023-05-10T13:02:03.373Z,97293.78
2023-05-10T13:04:11.279Z,97297.53
2023-05-10T13:06:21.948Z,97289.13
2023-05-10T13:08:34.559Z,97285.09
2023-05-10T13:10:43.030Z,97281.59
2023-05-10T13:12:50.877Z,97286.66
2023-05-10T13:14:58.880Z,97286.94
2023-05-10T13:17:07.032Z,97287.00
2023-05-10T13:19:15.187Z,97287.84
2023-05-10T13:21:25.877Z,97282.75
2023-05-10T13:23:33.859Z,97279.78
2023-05-10T13:25:42.128Z,97281.47
2023-05-10T13:27:50.166Z,97269.38
2023-05-10T13:30:00.419Z,97266.03
2023-05-10T13:32:09.285Z,97274.16
2023-05-10T13:34:17.412Z,97268.47
2023-05-10T13:36:28.273Z,97269.03
2023-05-10T13:38:36.420Z,97255.13
2023-05-10T13:40:44.594Z,97258.06
2023-05-10T13:42:52.565Z,97256.38
2023-05-10T13:45:00.623Z,97259.00
2023-05-10T13:47:08.884Z,97264.03
2023-05-10T13:49:16.820Z,97266.03
2023-05-10T13:51:27.403Z,97269.91
2023-05-10T13:53:35.278Z,97263.69
2023-05-10T13:55:43.051Z,97259.63
2023-05-10T13:57:50.923Z,97256.34
2023-05-10T13:59:58.795Z,97259.72
2023-05-10T14:02:06.977Z,97260.31
2023-05-10T14:04:15.740Z,97262.69
2023-05-10T14:06:23.601Z,97260.44
2023-05-10T14:08:34.141Z,97269.75
2023-05-10T14:10:42.242Z,97254.91
2023-05-10T14:12:50.583Z,97272.50
2023-05-10T14:14:59.381Z,97262.03
2023-05-10T14:17:08.250Z,97254.69
2023-05-10T14:19:17.338Z,97252.97
2023-05-10T14:21:25.466Z,97252.41
2023-05-10T14:23:36.104Z,97249.53
2023-05-10T14:25:44.761Z,97253.75
2023-05-10T14:27:52.724Z,97253.00
2023-05-10T14:30:00.811Z,97254.25
2023-05-10T14:32:09.807Z,97260.59
2023-05-10T14:34:17.859Z,97256.34
2023-05-10T14:36:25.758Z,97250.69
2023-05-10T14:38:36.470Z,97246.91
2023-05-10T14:40:44.425Z,97244.50
2023-05-10T14:42:54.054Z,97247.16
2023-05-10T14:45:01.995Z,97249.50
2023-05-10T14:47:12.044Z,97249.84
2023-05-10T14:49:20.327Z,97251.06
2023-05-10T14:51:28.439Z,97256.09
2023-05-10T14:53:39.221Z,97257.03
2023-05-10T14:55:47.202Z,97258.59
2023-05-10T14:57:55.583Z,97257.22
2023-05-10T15:00:03.794Z,97268.44
2023-05-10T15:02:12.455Z,97246.81
2023-05-10T15:04:20.911Z,97246.88
2023-05-10T15:06:35.657Z,97248.44
2023-05-10T15:08:46.342Z,97248.47
2023-05-10T15:10:56.932Z,97247.63
2023-05-10T15:13:04.997Z,97251.53
2023-05-10T15:15:13.010Z,97251.66
2023-05-10T15:17:22.227Z,97250.09
2023-05-10T15:19:30.504Z,97247.53
2023-05-10T15:21:40.116Z,97260.25
2023-05-10T15:23:50.745Z,97254.56
2023-05-10T15:25:58.640Z,97248.41
2023-05-10T15:28:06.821Z,97246.72
2023-05-10T15:30:15.672Z,97257.66
2023-05-10T15:32:23.696Z,97257.00
2023-05-10T15:34:35.035Z,97254.47
2023-05-10T15:36:44.555Z,97258.91
2023-05-10T15:38:55.460Z,97257.31
2023-05-10T15:41:03.359Z,97243.78
2023-05-10T15:43:11.579Z,97260.84
2023-05-10T15:45:19.659Z,97267.66
2023-05-10T15:47:27.944Z,97262.06
2023-05-10T15:49:36.350Z,97264.41
2023-05-10T15:51:44.504Z,97263.81
2023-05-10T15:54:06.385Z,97271.88
2023-05-10T15:56:18.105Z,97275.97
2023-05-10T15:58:28.305Z,97275.22
2023-05-10T16:00:36.489Z,97276.69
2023-05-10T16:02:44.974Z,97270.19
2023-05-10T16:04:53.183Z,97275.66
2023-05-10T16:07:01.121Z,97275.59
2023-05-10T16:09:12.713Z,97268.25
2023-05-10T16:11:21.398Z,97270.59
2023-05-10T16:13:30.008Z,97270.03
2023-05-10T16:15:38.271Z,97276.09
2023-05-10T16:17:46.473Z,97272.22
2023-05-10T16:19:54.618Z,97295.69
2023-05-10T16:22:02.762Z,97283.53
2023-05-10T16:24:16.594Z,97288.75
2023-05-10T16:26:25.078Z,97281.72
2023-05-10T16:28:32.980Z,97276.75
2023-05-10T16:30:40.923Z,97281.81
2023-05-10T16:32:50.724Z,97291.50
2023-05-10T16:34:58.804Z,97290.72
2023-05-10T16:37:06.972Z,97288.19
2023-05-10T16:39:17.648Z,97285.91
2023-05-10T16:41:26.641Z,97276.25
2023-05-10T16:43:35.708Z,97292.00
2023-05-10T16:45:45.796Z,97292.63
2023-05-10T16:47:57.099Z,97283.09
2023-05-10T16:50:06.336Z,97286.00
2023-05-10T16:52:14.850Z,97290.53
2023-05-10T16:54:25.490Z,97287.28
2023-05-10T16:56:33.644Z,97286.84
2023-05-10T16:58:41.591Z,97285.31
2023-05-10T17:00:49.852Z,97289.44
2023-05-10T17:02:58.173Z,97298.91
2023-05-10T17:05:08.079Z,97293.25
2023-05-10T17:07:16.287Z,97299.91
2023-05-10T17:09:26.826Z,97291.47
2023-05-10T17:11:35.650Z,97290.63
2023-05-10T17:13:43.716Z,97294.25
2023-05-10T17:15:51.790Z,97303.03
2023-05-10T17:18:00.186Z,97287.09
2023-05-10T17:20:09.910Z,97298.09
2023-05-10T17:22:18.151Z,97293.44
2023-05-10T17:24:30.064Z,97294.00
2023-05-10T17:26:42.875Z,97291.31
2023-05-10T17:28:51.117Z,97303.00
2023-05-10T17:31:01.759Z,97293.50
2023-05-10T17:33:10.039Z,97297.88
2023-05-10T17:35:18.456Z,97301.66
2023-05-10T17:37:26.886Z,97302.34
2023-05-10T17:39:39.820Z,97301.63
2023-05-10T17:41:48.101Z,97306.06
2023-05-10T17:43:57.144Z,97298.31
2023-05-10T17:46:06.370Z,97304.78
2023-05-10T17:48:14.693Z,97296.22
2023-05-10T17:50:22.881Z,97306.50
2023-05-10T17:52:33.721Z,97308.28
2023-05-10T17:54:44.501Z,97315.34
2023-05-10T17:56:53.821Z,97318.00
2023-05-10T17:59:01.836Z,97313.69
2023-05-10T18:01:10.094Z,97309.91
2023-05-10T18:03:19.877Z,97310.66
2023-05-10T18:05:28.620Z,97317.31
2023-05-10T18:07:37.247Z,97316.69
2023-05-10T18:09:47.748Z,97316.47
2023-05-10T18:11:55.741Z,97323.44
2023-05-10T18:14:04.466Z,97319.50
2023-05-10T18:16:13.637Z,97315.34
2023-05-10T18:18:21.794Z,97319.69
2023-05-10T18:20:29.956Z,97323.66
2023-05-10T18:22:38.232Z,97319.38
2023-05-10T18:24:48.772Z,97318.22
2023-05-10T18:26:56.740Z,97309.41
2023-05-10T18:29:04.711Z,97312.50
2023-05-10T18:31:12.922Z,97311.66
2023-05-10T18:33:20.929Z,97312.03
2023-05-10T18:35:28.927Z,97301.47
2023-05-10T18:37:38.576Z,97303.88
2023-05-10T18:39:49.204Z,97310.06
2023-05-10T18:41:57.404Z,97315.19
2023-05-10T18:44:05.412Z,97314.94
2023-05-10T18:46:13.402Z,97316.41
2023-05-10T18:48:21.427Z,97317.16
2023-05-10T18:50:29.454Z,97313.66
2023-05-10T18:52:37.506Z,97310.50
2023-05-10T18:54:48.051Z,97309.50
2023-05-10T18:56:57.575Z,97306.78
2023-05-10T18:59:05.603Z,97307.38
2023-05-10T19:01:13.553Z,97308.47
2023-05-10T19:03:21.690Z,97308.00
2023-05-10T19:05:31.712Z,97314.28
2023-05-10T19:07:43.586Z,97313.44
2023-05-10T19:09:54.064Z,97315.50
2023-05-10T19:12:02.102Z,97322.41
2023-05-10T19:14:10.080Z,97317.75
2023-05-10T19:16:19.573Z,97310.38
2023-05-10T19:18:27.729Z,97325.75
2023-05-10T19:20:38.081Z,97331.44
2023-05-10T19:23:01.948Z,97336.16
2023-05-10T19:25:21.577Z,97339.44
2023-05-10T19:27:30.303Z,97340.91
2023-05-10T19:29:38.769Z,97347.44
2023-05-10T19:31:47.131Z,97332.31
2023-05-10T19:33:56.294Z,97335.56
2023-05-10T19:36:09.257Z,97333.00
2023-05-10T19:38:19.013Z,97340.28
2023-05-10T19:40:29.678Z,97339.31
2023-05-10T19:42:38.143Z,97344.63
2023-05-10T19:44:46.399Z,97341.50
2023-05-10T19:46:55.179Z,97334.25
2023-05-10T19:49:03.381Z,97349.56
2023-05-10T19:51:12.395Z,97349.31
2023-05-10T19:53:22.856Z,97345.75
2023-05-10T19:55:36.533Z,97331.22
2023-05-10T19:57:50.809Z,97334.25
2023-05-10T20:00:00.960Z,97332.19
2023-05-10T20:02:09.277Z,97327.34
2023-05-10T20:04:17.277Z,97330.13
2023-05-10T20:06:29.674Z,97330.75
2023-05-10T20:08:42.312Z,97335.34
2023-05-10T20:10:54.976Z,97339.59
2023-05-10T20:13:03.833Z,97334.72
2023-05-10T20:15:12.164Z,97336.91
2023-05-10T20:17:20.136Z,97332.28
2023-05-10T20:19:30.465Z,97330.59
2023-05-10T20:21:38.608Z,97331.22
2023-05-10T20:23:46.724Z,97330.59
2023-05-10T20:25:57.861Z,97323.94
2023-05-10T20:28:08.214Z,97339.44
2023-05-10T20:30:18.076Z,97334.44
2023-05-10T20:32:26.313Z,97322.81
2023-05-10T20:34:34.266Z,97326.09
2023-05-10T20:36:42.517Z,97320.63
2023-05-10T20:38:50.737Z,97323.56
2023-05-10T20:41:01.294Z,97315.19
2023-05-10T20:43:09.367Z,97314.81
2023-05-10T20:45:17.614Z,97318.94
2023-05-10T20:47:26.255Z,97326.34
2023-05-10T20:49:34.319Z,97327.16
2023-05-10T20:51:42.267Z,97323.78
2023-05-10T20:53:50.321Z,97323.91
2023-05-10T20:56:01.363Z,97322.81
2023-05-10T20:58:11.493Z,97325.38
2023-05-10T21:00:20.373Z,97316.50
2023-05-10T21:02:28.430Z,97322.94
2023-05-10T21:04:36.582Z,97316.28
2023-05-10T21:06:45.945Z,97317.97
2023-05-10T21:08:53.845Z,97327.66
2023-05-10T21:11:05.941Z,97322.97
2023-05-10T21:13:14.105Z,97321.41
2023-05-10T21:15:22.869Z,97330.13
2023-05-10T21:17:30.853Z,97337.03
2023-05-10T21:19:38.938Z,97346.09
2023-05-10T21:21:46.900Z,97340.13
2023-05-10T21:23:54.798Z,97328.16
2023-05-10T21:26:05.664Z,97334.09
2023-05-10T21:28:16.769Z,97334.72
2023-05-10T21:30:24.760Z,97336.28
2023-05-10T21:32:32.980Z,97335.78
2023-05-10T21:34:40.895Z,97334.94
2023-05-10T21:36:48.802Z,97337.31
2023-05-10T21:38:57.493Z,97336.06
2023-05-10T21:41:09.713Z,97334.22
2023-05-10T21:43:17.630Z,97337.22
2023-05-10T21:45:25.562Z,97333.31
2023-05-10T21:47:33.548Z,97333.44
2023-05-10T21:49:41.990Z,97335.47
2023-05-10T21:51:49.891Z,97339.47
2023-05-10T21:53:57.905Z,97340.94
2023-05-10T21:56:08.773Z,97330.91
2023-05-10T21:58:16.903Z,97335.88
2023-05-10T22:00:24.752Z,97330.06
2023-05-10T22:02:32.705Z,97329.59
2023-05-10T22:04:40.858Z,97343.38
2023-05-10T22:06:49.234Z,97332.94
2023-05-10T22:08:57.319Z,97329.06
2023-05-10T22:11:05.424Z,97325.56
2023-05-10T22:13:16.023Z,97335.31
2023-05-10T22:15:24.144Z,97337.28
2023-05-10T22:17:32.616Z,97327.47
2023-05-10T22:19:40.753Z,97330.13
2023-05-10T22:21:48.593Z,97325.88
2023-05-10T22:23:56.402Z,97327.78
2023-05-10T22:26:05.060Z,97325.34
2023-05-10T22:28:16.378Z,97331.38
2023-05-10T22:30:24.502Z,97321.28
2023-05-10T22:32:32.602Z,97311.25
2023-05-10T22:34:40.442Z,97319.97
2023-05-10T22:36:49.309Z,97324.56
2023-05-10T22:38:57.436Z,97325.66
2023-05-10T22:41:05.427Z,97318.00
2023-05-10T22:43:16.017Z,97331.06
2023-05-10T22:45:24.195Z,97319.03
2023-05-10T22:47:32.213Z,97325.03
2023-05-10T22:49:41.719Z,97318.69
2023-05-10T22:51:49.608Z,97311.25
2023-05-10T22:53:57.964Z,97307.88
2023-05-10T22:56:06.100Z,97309.69
2023-05-10T22:58:16.933Z,97310.66
2023-05-10T23:00:25.024Z,97313.31
2023-05-10T23:02:33.240Z,97311.88
2023-05-10T23:04:41.546Z,97316.06
2023-05-10T23:06:49.726Z,97316.69
2023-05-10T23:08:57.673Z,97321.00
2023-05-10T23:11:05.524Z,97315.69
2023-05-10T23:13:16.254Z,97320.25
2023-05-10T23:15:24.112Z,97312.00
2023-05-10T23:17:46.124Z,97313.06
2023-05-10T23:19:54.278Z,97311.88
2023-05-10T23:22:02.350Z,97314.16
2023-05-10T23:24:11.942Z,97313.66
2023-05-10T23:26:20.023Z,97315.69
2023-05-10T23:28:30.658Z,97313.66
2023-05-10T23:30:38.699Z,97316.31
2023-05-10T23:32:46.622Z,97313.97
2023-05-10T23:34:54.565Z,97306.50
2023-05-10T23:37:02.646Z,97309.19
2023-05-10T23:39:10.893Z,97304.88
2023-05-10T23:41:19.128Z,97304.25
2023-05-10T23:43:27.104Z,97300.22
2023-05-10T23:45:37.915Z,97313.00
2023-05-10T23:47:45.971Z,97311.09
2023-05-10T23:49:54.212Z,97306.97
2023-05-10T23:52:02.281Z,97309.63
2023-05-10T23:54:10.231Z,97309.13
2023-05-10T23:56:18.455Z,97300.50
2023-05-10T23:58:26.512Z,97304.25
